sensor_id;sensor_type;location;lat;lon;timestamp;pressure;altitude;pressure_sealevel;temperature;humidity
80542;BME280;69870;51.460;8.842;2023-05-07T00:01:33;98599.84;;;14.14;78.07
80542;BME280;69870;51.460;8.842;2023-05-07T00:04:00;98608.84;;;14.15;78.23
80542;BME280;69870;51.460;8.842;2023-05-07T00:06:27;98602.16;;;14.12;78.28
80542;BME280;69870;51.460;8.842;2023-05-07T00:08:54;98595.09;;;14.11;78.19
80542;BME280;69870;51.460;8.842;2023-05-07T00:11:21;98603.28;;;14.11;77.95
80542;BME280;69870;51.460;8.842;2023-05-07T00:13:47;98601.72;;;14.10;77.84
80542;BME280;69870;51.460;8.842;2023-05-07T00:16:14;98594.66;;;14.09;78.59
80542;BME280;69870;51.460;8.842;2023-05-07T00:18:42;98593.13;;;14.08;77.94
80542;BME280;69870;51.460;8.842;2023-05-07T00:21:09;98597.78;;;14.08;78.47
80542;BME280;69870;51.460;8.842;2023-05-07T00:23:35;98595.78;;;14.05;78.45
80542;BME280;69870;51.460;8.842;2023-05-07T00:26:02;98596.16;;;14.03;78.22
80542;BME280;69870;51.460;8.842;2023-05-07T00:28:29;98606.31;;;14.03;78.25
80542;BME280;69870;51.460;8.842;2023-05-07T00:30:55;98609.41;;;14.01;78.06
80542;BME280;69870;51.460;8.842;2023-05-07T00:33:22;98612.16;;;14.01;78.43
80542;BME280;69870;51.460;8.842;2023-05-07T00:35:50;98608.63;;;14.01;78.29
80542;BME280;69870;51.460;8.842;2023-05-07T00:38:16;98604.31;;;14.00;78.71
80542;BME280;69870;51.460;8.842;2023-05-07T00:40:43;98603.13;;;13.97;78.57
80542;BME280;69870;51.460;8.842;2023-05-07T00:43:10;98608.59;;;13.97;78.41
80542;BME280;69870;51.460;8.842;2023-05-07T00:45:38;98606.66;;;13.98;78.52
80542;BME280;69870;51.460;8.842;2023-05-07T00:48:04;98608.59;;;13.97;78.91
80542;BME280;69870;51.460;8.842;2023-05-07T00:50:32;98607.00;;;13.96;78.84
80542;BME280;69870;51.460;8.842;2023-05-07T00:53:00;98594.50;;;13.95;79.47
80542;BME280;69870;51.460;8.842;2023-05-07T00:55:28;98603.84;;;13.94;78.88
80542;BME280;69870;51.460;8.842;2023-05-07T00:57:55;98594.44;;;13.91;78.60
80542;BME280;69870;51.460;8.842;2023-05-07T01:00:21;98597.94;;;13.92;79.14
80542;BME280;69870;51.460;8.842;2023-05-07T01:02:50;98593.66;;;13.91;79.66
80542;BME280;69870;51.460;8.842;2023-05-07T01:05:17;98595.94;;;13.89;79.31
80542;BME280;69870;51.460;8.842;2023-05-07T01:07:45;98599.84;;;13.88;78.09
80542;BME280;69870;51.460;8.842;2023-05-07T01:10:14;98598.25;;;13.87;78.58
80542;BME280;69870;51.460;8.842;2023-05-07T01:12:42;98602.97;;;13.86;79.08
80542;BME280;69870;51.460;8.842;2023-05-07T01:15:10;98595.13;;;13.85;78.69
80542;BME280;69870;51.460;8.842;2023-05-07T01:17:38;98602.53;;;13.84;79.03
80542;BME280;69870;51.460;8.842;2023-05-07T01:20:09;98598.22;;;13.83;79.79
80542;BME280;69870;51.460;8.842;2023-05-07T01:22:38;98602.09;;;13.82;78.74
80542;BME280;69870;51.460;8.842;2023-05-07T01:25:07;98600.53;;;13.81;79.28
80542;BME280;69870;51.460;8.842;2023-05-07T01:27:35;98611.47;;;13.81;79.01
80542;BME280;69870;51.460;8.842;2023-05-07T01:30:03;98609.09;;;13.80;78.85
80542;BME280;69870;51.460;8.842;2023-05-07T01:32:33;98613.78;;;13.79;79.00
80542;BME280;69870;51.460;8.842;2023-05-07T01:35:02;98614.56;;;13.80;79.27
80542;BME280;69870;51.460;8.842;2023-05-07T01:37:31;98602.06;;;13.79;78.80
80542;BME280;69870;51.460;8.842;2023-05-07T01:40:00;98605.94;;;13.78;79.43
80542;BME280;69870;51.460;8.842;2023-05-07T01:42:28;98605.16;;;13.77;79.26
80542;BME280;69870;51.460;8.842;2023-05-07T01:44:55;98613.72;;;13.76;79.11
80542;BME280;69870;51.460;8.842;2023-05-07T01:47:22;98602.03;;;13.75;79.94
80542;BME280;69870;51.460;8.842;2023-05-07T01:49:49;98608.25;;;13.76;78.98
80542;BME280;69870;51.460;8.842;2023-05-07T01:52:16;98612.16;;;13.75;80.16
80542;BME280;69870;51.460;8.842;2023-05-07T01:54:43;98612.09;;;13.71;79.62
80542;BME280;69870;51.460;8.842;2023-05-07T01:57:11;98612.88;;;13.72;78.81
80542;BME280;69870;51.460;8.842;2023-05-07T01:59:38;98612.03;;;13.68;79.27
80542;BME280;69870;51.460;8.842;2023-05-07T02:02:04;98613.19;;;13.67;80.20
80542;BME280;69870;51.460;8.842;2023-05-07T02:04:32;98612.75;;;13.65;79.77
80542;BME280;69870;51.460;8.842;2023-05-07T02:06:59;98607.31;;;13.65;80.40
80542;BME280;69870;51.460;8.842;2023-05-07T02:09:25;98618.22;;;13.65;80.37
80542;BME280;69870;51.460;8.842;2023-05-07T02:11:52;98602.22;;;13.63;79.46
80542;BME280;69870;51.460;8.842;2023-05-07T02:14:21;98605.31;;;13.62;79.21
80542;BME280;69870;51.460;8.842;2023-05-07T02:16:48;98614.63;;;13.57;79.63
80542;BME280;69870;51.460;8.842;2023-05-07T02:19:15;98612.22;;;13.56;79.64
80542;BME280;69870;51.460;8.842;2023-05-07T02:21:41;98615.72;;;13.53;80.22
80542;BME280;69870;51.460;8.842;2023-05-07T02:24:08;98616.00;;;13.48;79.65
80542;BME280;69870;51.460;8.842;2023-05-07T02:26:35;98614.78;;;13.45;80.26
80542;BME280;69870;51.460;8.842;2023-05-07T02:29:01;98613.16;;;13.41;79.00
80542;BME280;69870;51.460;8.842;2023-05-07T02:31:30;98615.03;;;13.37;79.43
80542;BME280;69870;51.460;8.842;2023-05-07T02:33:59;98618.91;;;13.36;80.04
80542;BME280;69870;51.460;8.842;2023-05-07T02:36:26;98615.34;;;13.32;79.64
80542;BME280;69870;51.460;8.842;2023-05-07T02:38:59;98604.00;;;13.30;80.29
80542;BME280;69870;51.460;8.842;2023-05-07T02:41:27;98619.97;;;13.28;79.51
80542;BME280;69870;51.460;8.842;2023-05-07T02:43:54;98603.88;;;13.22;79.89
80542;BME280;69870;51.460;8.842;2023-05-07T02:46:21;98615.97;;;13.21;80.03
80542;BME280;69870;51.460;8.842;2023-05-07T02:48:57;98618.25;;;13.19;79.68
80542;BME280;69870;51.460;8.842;2023-05-07T02:51:23;98615.13;;;13.17;79.85
80542;BME280;69870;51.460;8.842;2023-05-07T02:53:51;98611.94;;;13.15;79.88
80542;BME280;69870;51.460;8.842;2023-05-07T02:56:18;98612.31;;;13.14;80.07
80542;BME280;69870;51.460;8.842;2023-05-07T02:58:45;98618.94;;;13.13;79.53
80542;BME280;69870;51.460;8.842;2023-05-07T03:01:12;98622.81;;;13.12;79.21
80542;BME280;69870;51.460;8.842;2023-05-07T03:04:00;98625.09;;;13.10;79.57
80542;BME280;69870;51.460;8.842;2023-05-07T03:06:26;98627.41;;;13.08;79.64
80542;BME280;69870;51.460;8.842;2023-05-07T03:08:53;98621.16;;;13.07;78.97
80542;BME280;69870;51.460;8.842;2023-05-07T03:11:19;98618.84;;;13.09;79.40
80542;BME280;69870;51.460;8.842;2023-05-07T03:13:46;98618.00;;;13.05;79.39
80542;BME280;69870;51.460;8.842;2023-05-07T03:16:15;98613.22;;;13.02;78.65
80542;BME280;69870;51.460;8.842;2023-05-07T03:18:41;98614.75;;;13.00;78.91
80542;BME280;69870;51.460;8.842;2023-05-07T03:21:09;98613.16;;;12.99;79.56
80542;BME280;69870;51.460;8.842;2023-05-07T03:23:36;98616.28;;;12.97;79.26
80542;BME280;69870;51.460;8.842;2023-05-07T03:26:03;98608.84;;;12.98;79.86
80542;BME280;69870;51.460;8.842;2023-05-07T03:28:30;98614.69;;;12.96;78.96
80542;BME280;69870;51.460;8.842;2023-05-07T03:31:00;98609.94;;;12.93;79.24
80542;BME280;69870;51.460;8.842;2023-05-07T03:33:28;98614.97;;;12.91;78.46
80542;BME280;69870;51.460;8.842;2023-05-07T03:35:55;98615.34;;;12.90;78.93
80542;BME280;69870;51.460;8.842;2023-05-07T03:38:25;98611.03;;;12.89;79.11
80542;BME280;69870;51.460;8.842;2023-05-07T03:40:52;98617.28;;;12.89;78.86
80542;BME280;69870;51.460;8.842;2023-05-07T03:43:19;98621.59;;;12.90;78.61
80542;BME280;69870;51.460;8.842;2023-05-07T03:45:50;98614.97;;;12.91;79.14
80542;BME280;69870;51.460;8.842;2023-05-07T03:48:22;98623.16;;;12.91;79.22
80542;BME280;69870;51.460;8.842;2023-05-07T03:50:50;98627.47;;;12.92;79.51
80542;BME280;69870;51.460;8.842;2023-05-07T03:53:18;98632.16;;;12.92;78.58
80542;BME280;69870;51.460;8.842;2023-05-07T03:55:46;98624.75;;;12.92;78.46
80542;BME280;69870;51.460;8.842;2023-05-07T03:58:13;98630.06;;;12.85;79.05
80542;BME280;69870;51.460;8.842;2023-05-07T04:00:41;98624.63;;;12.85;78.29
80542;BME280;69870;51.460;8.842;2023-05-07T04:03:20;98636.69;;;12.84;78.62
80542;BME280;69870;51.460;8.842;2023-05-07T04:05:53;98637.13;;;12.86;79.25
80542;BME280;69870;51.460;8.842;2023-05-07T04:08:20;98638.69;;;12.87;79.07
80542;BME280;69870;51.460;8.842;2023-05-07T04:10:58;98633.22;;;12.87;78.71
80542;BME280;69870;51.460;8.842;2023-05-07T04:13:42;98636.69;;;12.84;79.06
80542;BME280;69870;51.460;8.842;2023-05-07T04:16:11;98637.03;;;12.83;78.48
80542;BME280;69870;51.460;8.842;2023-05-07T04:18:43;98636.69;;;12.84;79.08
80542;BME280;69870;51.460;8.842;2023-05-07T04:21:19;98645.66;;;12.85;79.14
80542;BME280;69870;51.460;8.842;2023-05-07T04:23:58;98643.56;;;12.78;79.07
80542;BME280;69870;51.460;8.842;2023-05-07T04:26:26;98642.72;;;12.74;78.78
80542;BME280;69870;51.460;8.842;2023-05-07T04:28:53;98645.06;;;12.76;78.23
80542;BME280;69870;51.460;8.842;2023-05-07T04:31:20;98645.16;;;12.79;78.42
80542;BME280;69870;51.460;8.842;2023-05-07T04:33:50;98647.75;;;12.72;79.44
80542;BME280;69870;51.460;8.842;2023-05-07T04:36:17;98639.13;;;12.70;78.91
80542;BME280;69870;51.460;8.842;2023-05-07T04:38:50;98651.63;;;12.71;78.11
80542;BME280;69870;51.460;8.842;2023-05-07T04:41:18;98649.34;;;12.73;78.83
80542;BME280;69870;51.460;8.842;2023-05-07T04:43:46;98650.19;;;12.77;78.91
80542;BME280;69870;51.460;8.842;2023-05-07T04:46:14;98654.91;;;12.80;77.94
80542;BME280;69870;51.460;8.842;2023-05-07T04:48:42;98654.84;;;12.77;78.56
80542;BME280;69870;51.460;8.842;2023-05-07T04:51:08;98666.22;;;12.79;78.64
80542;BME280;69870;51.460;8.842;2023-05-07T04:53:35;98654.91;;;12.80;78.04
80542;BME280;69870;51.460;8.842;2023-05-07T04:56:02;98664.34;;;12.83;77.77
80542;BME280;69870;51.460;8.842;2023-05-07T04:58:35;98658.00;;;12.79;78.76
80542;BME280;69870;51.460;8.842;2023-05-07T05:01:02;98658.38;;;12.77;78.61
80542;BME280;69870;51.460;8.842;2023-05-07T05:03:30;98664.28;;;12.79;78.38
80542;BME280;69870;51.460;8.842;2023-05-07T05:05:57;98667.44;;;12.81;78.07
80542;BME280;69870;51.460;8.842;2023-05-07T05:08:26;98667.44;;;12.81;78.42
80542;BME280;69870;51.460;8.842;2023-05-07T05:10:54;98664.97;;;12.76;78.80
80542;BME280;69870;51.460;8.842;2023-05-07T05:13:24;98668.78;;;12.72;77.72
80542;BME280;69870;51.460;8.842;2023-05-07T05:15:51;98681.34;;;12.76;78.94
80542;BME280;69870;51.460;8.842;2023-05-07T05:18:19;98687.63;;;12.77;78.11
80542;BME280;69870;51.460;8.842;2023-05-07T05:20:48;98678.72;;;12.80;78.94
80542;BME280;69870;51.460;8.842;2023-05-07T05:23:17;98689.25;;;12.81;79.14
80542;BME280;69870;51.460;8.842;2023-05-07T05:25:44;98689.75;;;12.87;78.07
80542;BME280;69870;51.460;8.842;2023-05-07T05:28:12;98697.25;;;12.90;77.60
80542;BME280;69870;51.460;8.842;2023-05-07T05:30:39;98697.94;;;12.87;78.34
80542;BME280;69870;51.460;8.842;2023-05-07T05:33:06;98689.25;;;12.81;79.03
80542;BME280;69870;51.460;8.842;2023-05-07T05:35:35;98691.56;;;12.79;77.77
80542;BME280;69870;51.460;8.842;2023-05-07T05:38:04;98687.66;;;12.80;78.31
80542;BME280;69870;51.460;8.842;2023-05-07T05:40:32;98685.84;;;12.84;77.90
80542;BME280;69870;51.460;8.842;2023-05-07T05:42:59;98687.13;;;12.90;77.16
80542;BME280;69870;51.460;8.842;2023-05-07T05:45:26;98693.44;;;12.94;78.24
80542;BME280;69870;51.460;8.842;2023-05-07T05:47:52;98691.50;;;12.95;77.72
80542;BME280;69870;51.460;8.842;2023-05-07T05:50:19;98691.91;;;12.97;77.22
80542;BME280;69870;51.460;8.842;2023-05-07T05:52:47;98690.41;;;12.99;77.89
80542;BME280;69870;51.460;8.842;2023-05-07T05:55:15;98697.00;;;12.98;77.74
80542;BME280;69870;51.460;8.842;2023-05-07T05:57:42;98697.00;;;12.98;77.53
80542;BME280;69870;51.460;8.842;2023-05-07T06:00:10;98692.84;;;13.04;76.86
80542;BME280;69870;51.460;8.842;2023-05-07T06:02:44;98696.16;;;13.13;77.09
80542;BME280;69870;51.460;8.842;2023-05-07T06:05:13;98699.78;;;13.17;76.76
80542;BME280;69870;51.460;8.842;2023-05-07T06:07:41;98700.97;;;13.20;76.61
80542;BME280;69870;51.460;8.842;2023-05-07T06:10:09;98695.16;;;13.21;77.28
80542;BME280;69870;51.460;8.842;2023-05-07T06:12:37;98701.06;;;13.23;77.64
80542;BME280;69870;51.460;8.842;2023-05-07T06:15:05;98695.59;;;13.23;76.87
80542;BME280;69870;51.460;8.842;2023-05-07T06:17:31;98689.84;;;13.29;77.14
80542;BME280;69870;51.460;8.842;2023-05-07T06:19:58;98690.31;;;13.34;76.77
80542;BME280;69870;51.460;8.842;2023-05-07T06:22:25;98689.66;;;13.41;76.13
80542;BME280;69870;51.460;8.842;2023-05-07T06:24:51;98697.56;;;13.46;75.64
80542;BME280;69870;51.460;8.842;2023-05-07T06:27:19;98701.13;;;13.50;75.75
80542;BME280;69870;51.460;8.842;2023-05-07T06:29:47;98700.00;;;13.51;76.23
80542;BME280;69870;51.460;8.842;2023-05-07T06:32:16;98710.81;;;13.44;76.07
80542;BME280;69870;51.460;8.842;2023-05-07T06:34:44;98710.81;;;13.44;75.87
80542;BME280;69870;51.460;8.842;2023-05-07T06:37:12;98712.03;;;13.46;76.07
80542;BME280;69870;51.460;8.842;2023-05-07T06:39:51;98721.06;;;13.50;76.33
80542;BME280;69870;51.460;8.842;2023-05-07T06:42:17;98721.88;;;13.51;75.26
80542;BME280;69870;51.460;8.842;2023-05-07T06:44:48;98730.41;;;13.49;75.57
80542;BME280;69870;51.460;8.842;2023-05-07T06:47:16;98733.38;;;13.41;76.21
80542;BME280;69870;51.460;8.842;2023-05-07T06:49:46;98733.13;;;13.27;76.30
80542;BME280;69870;51.460;8.842;2023-05-07T06:52:16;98729.88;;;13.21;76.61
80542;BME280;69870;51.460;8.842;2023-05-07T06:54:43;98734.19;;;13.22;75.78
80542;BME280;69870;51.460;8.842;2023-05-07T06:57:11;98727.50;;;13.19;75.97
80542;BME280;69870;51.460;8.842;2023-05-07T06:59:37;98733.41;;;13.21;76.15
80542;BME280;69870;51.460;8.842;2023-05-07T07:02:05;98726.78;;;13.22;76.21
80542;BME280;69870;51.460;8.842;2023-05-07T07:04:32;98736.19;;;13.25;76.19
80542;BME280;69870;51.460;8.842;2023-05-07T07:07:04;98737.03;;;13.29;76.51
80542;BME280;69870;51.460;8.842;2023-05-07T07:09:30;98735.63;;;13.35;75.19
80542;BME280;69870;51.460;8.842;2023-05-07T07:11:59;98728.69;;;13.41;75.29
80542;BME280;69870;51.460;8.842;2023-05-07T07:14:26;98732.94;;;13.39;75.41
80542;BME280;69870;51.460;8.842;2023-05-07T07:16:54;98731.44;;;13.41;75.34
80542;BME280;69870;51.460;8.842;2023-05-07T07:19:23;98740.09;;;13.47;75.81
80542;BME280;69870;51.460;8.842;2023-05-07T07:21:53;98746.03;;;13.49;75.07
80542;BME280;69870;51.460;8.842;2023-05-07T07:24:19;98739.69;;;13.45;75.40
80542;BME280;69870;51.460;8.842;2023-05-07T07:26:48;98737.97;;;13.37;75.06
80542;BME280;69870;51.460;8.842;2023-05-07T07:29:16;98744.00;;;13.46;75.55
80542;BME280;69870;51.460;8.842;2023-05-07T07:31:44;98736.78;;;13.57;75.21
80542;BME280;69870;51.460;8.842;2023-05-07T07:34:11;98738.16;;;13.66;75.63
80542;BME280;69870;51.460;8.842;2023-05-07T07:36:39;98741.78;;;13.74;74.72
80542;BME280;69870;51.460;8.842;2023-05-07T07:39:08;98733.16;;;13.72;74.73
80542;BME280;69870;51.460;8.842;2023-05-07T07:41:36;98733.81;;;13.65;74.98
80542;BME280;69870;51.460;8.842;2023-05-07T07:44:03;98734.19;;;13.64;74.96
80542;BME280;69870;51.460;8.842;2023-05-07T07:46:34;98730.25;;;13.61;74.33
80542;BME280;69870;51.460;8.842;2023-05-07T07:49:01;98726.59;;;13.54;74.51
80542;BME280;69870;51.460;8.842;2023-05-07T07:51:28;98739.09;;;13.55;74.42
80542;BME280;69870;51.460;8.842;2023-05-07T07:53:57;98737.88;;;13.52;74.51
80542;BME280;69870;51.460;8.842;2023-05-07T07:56:24;98739.25;;;13.62;74.33
80542;BME280;69870;51.460;8.842;2023-05-07T07:58:51;98741.31;;;13.68;74.79
80542;BME280;69870;51.460;8.842;2023-05-07T08:01:18;98746.44;;;13.73;74.29
80542;BME280;69870;51.460;8.842;2023-05-07T08:03:46;98747.34;;;13.77;74.21
80542;BME280;69870;51.460;8.842;2023-05-07T08:06:13;98752.91;;;13.84;74.25
80542;BME280;69870;51.460;8.842;2023-05-07T08:08:40;98753.69;;;13.85;74.20
80542;BME280;69870;51.460;8.842;2023-05-07T08:11:08;98757.53;;;13.80;73.95
80542;BME280;69870;51.460;8.842;2023-05-07T08:13:36;98754.34;;;13.78;74.33
80542;BME280;69870;51.460;8.842;2023-05-07T08:16:03;98758.38;;;13.84;74.16
80542;BME280;69870;51.460;8.842;2023-05-07T08:18:30;98756.44;;;13.85;74.45
80542;BME280;69870;51.460;8.842;2023-05-07T08:21:00;98758.81;;;13.86;73.46
80542;BME280;69870;51.460;8.842;2023-05-07T08:23:27;98754.50;;;13.85;73.93
80542;BME280;69870;51.460;8.842;2023-05-07T08:25:54;98762.28;;;13.83;73.48
80542;BME280;69870;51.460;8.842;2023-05-07T08:28:23;98754.78;;;13.80;73.40
80542;BME280;69870;51.460;8.842;2023-05-07T08:30:50;98764.34;;;13.90;73.14
80542;BME280;69870;51.460;8.842;2023-05-07T08:33:17;98762.44;;;13.94;73.33
80542;BME280;69870;51.460;8.842;2023-05-07T08:35:43;98764.16;;;14.02;73.61
80542;BME280;69870;51.460;8.842;2023-05-07T08:38:12;98767.50;;;14.15;73.54
80542;BME280;69870;51.460;8.842;2023-05-07T08:40:40;98762.59;;;14.27;73.14
80542;BME280;69870;51.460;8.842;2023-05-07T08:43:12;98768.03;;;14.46;72.52
80542;BME280;69870;51.460;8.842;2023-05-07T08:45:40;98759.69;;;14.65;71.86
80542;BME280;69870;51.460;8.842;2023-05-07T08:48:16;98757.88;;;14.73;71.84
80542;BME280;69870;51.460;8.842;2023-05-07T08:50:50;98764.16;;;14.77;72.12
80542;BME280;69870;51.460;8.842;2023-05-07T08:53:17;98761.44;;;14.77;71.30
80542;BME280;69870;51.460;8.842;2023-05-07T08:55:44;98770.91;;;14.83;71.66
80542;BME280;69870;51.460;8.842;2023-05-07T08:58:13;98773.34;;;14.92;71.93
80542;BME280;69870;51.460;8.842;2023-05-07T09:00:41;98768.34;;;14.97;71.06
80542;BME280;69870;51.460;8.842;2023-05-07T09:03:09;98770.34;;;15.00;70.92
80542;BME280;69870;51.460;8.842;2023-05-07T09:05:38;98773.94;;;15.04;71.25
80542;BME280;69870;51.460;8.842;2023-05-07T09:08:07;98767.81;;;15.18;70.28
80542;BME280;69870;51.460;8.842;2023-05-07T09:10:35;98775.47;;;15.35;70.05
80542;BME280;69870;51.460;8.842;2023-05-07T09:13:03;98772.50;;;15.47;70.45
80542;BME280;69870;51.460;8.842;2023-05-07T09:15:30;98760.38;;;15.48;70.18
80542;BME280;69870;51.460;8.842;2023-05-07T09:18:00;98764.53;;;15.68;69.44
80542;BME280;69870;51.460;8.842;2023-05-07T09:20:30;98762.94;;;16.07;68.79
80542;BME280;69870;51.460;8.842;2023-05-07T09:22:58;98759.22;;;16.33;67.94
80542;BME280;69870;51.460;8.842;2023-05-07T09:25:29;98756.78;;;16.21;67.88
80542;BME280;69870;51.460;8.842;2023-05-07T09:27:56;98753.69;;;16.30;67.95
80542;BME280;69870;51.460;8.842;2023-05-07T09:30:27;98763.94;;;16.33;67.79
80542;BME280;69870;51.460;8.842;2023-05-07T09:32:54;98763.06;;;16.22;67.88
80542;BME280;69870;51.460;8.842;2023-05-07T09:35:23;98763.88;;;16.29;67.55
80542;BME280;69870;51.460;8.842;2023-05-07T09:37:57;98762.84;;;16.48;67.37
80542;BME280;69870;51.460;8.842;2023-05-07T09:40:25;98767.75;;;16.68;67.45
80542;BME280;69870;51.460;8.842;2023-05-07T09:42:53;98769.25;;;16.62;66.67
80542;BME280;69870;51.460;8.842;2023-05-07T09:45:22;98771.19;;;16.58;66.89
80542;BME280;69870;51.460;8.842;2023-05-07T09:47:53;98772.03;;;16.66;66.91
80542;BME280;69870;51.460;8.842;2023-05-07T09:50:26;98766.22;;;16.78;66.13
80542;BME280;69870;51.460;8.842;2023-05-07T09:52:54;98759.66;;;17.00;65.52
80542;BME280;69870;51.460;8.842;2023-05-07T09:55:21;98751.09;;;17.12;65.48
80542;BME280;69870;51.460;8.842;2023-05-07T09:57:50;98754.22;;;17.14;65.28
80542;BME280;69870;51.460;8.842;2023-05-07T10:00:18;98764.09;;;17.29;64.96
80542;BME280;69870;51.460;8.842;2023-05-07T10:02:47;98750.91;;;17.70;64.05
80542;BME280;69870;51.460;8.842;2023-05-07T10:05:18;98755.28;;;18.35;62.16
80542;BME280;69870;51.460;8.842;2023-05-07T10:07:46;98756.06;;;18.63;61.22
80542;BME280;69870;51.460;8.842;2023-05-07T10:10:14;98760.72;;;18.87;60.88
80542;BME280;69870;51.460;8.842;2023-05-07T10:12:44;98754.44;;;18.83;60.81
80542;BME280;69870;51.460;8.842;2023-05-07T10:15:21;98756.44;;;18.72;60.83
80542;BME280;69870;51.460;8.842;2023-05-07T10:17:53;98754.06;;;18.81;61.29
80542;BME280;69870;51.460;8.842;2023-05-07T10:20:20;98752.91;;;18.68;61.17
80542;BME280;69870;51.460;8.842;2023-05-07T10:22:49;98756.09;;;18.46;61.07
80542;BME280;69870;51.460;8.842;2023-05-07T10:25:30;98751.34;;;18.25;61.74
80542;BME280;69870;51.460;8.842;2023-05-07T10:28:06;98748.59;;;18.39;61.80
80542;BME280;69870;51.460;8.842;2023-05-07T10:30:44;98748.97;;;18.66;61.41
80542;BME280;69870;51.460;8.842;2023-05-07T10:33:16;98756.41;;;18.76;60.99
80542;BME280;69870;51.460;8.842;2023-05-07T10:35:47;98738.66;;;18.94;60.77
80542;BME280;69870;51.460;8.842;2023-05-07T10:38:16;98740.59;;;19.01;60.16
80542;BME280;69870;51.460;8.842;2023-05-07T10:40:45;98743.00;;;18.92;60.38
80542;BME280;69870;51.460;8.842;2023-05-07T10:43:12;98745.72;;;19.02;60.03
80542;BME280;69870;51.460;8.842;2023-05-07T10:46:11;98742.53;;;19.15;59.25
80542;BME280;69870;51.460;8.842;2023-05-07T10:49:08;98736.56;;;19.37;59.47
80542;BME280;69870;51.460;8.842;2023-05-07T10:52:12;98732.47;;;19.59;57.99
80542;BME280;69870;51.460;8.842;2023-05-07T10:54:44;98736.69;;;19.78;57.89
80542;BME280;69870;51.460;8.842;2023-05-07T10:57:37;98730.44;;;19.67;57.72
80542;BME280;69870;51.460;8.842;2023-05-07T11:00:42;98738.38;;;19.61;57.51
80542;BME280;69870;51.460;8.842;2023-05-07T11:03:17;98730.44;;;19.67;58.30
80542;BME280;69870;51.460;8.842;2023-05-07T11:06:09;98725.13;;;19.97;57.76
80542;BME280;69870;51.460;8.842;2023-05-07T11:08:54;98732.91;;;20.09;56.58
80542;BME280;69870;51.460;8.842;2023-05-07T11:11:52;98728.66;;;20.01;56.02
80542;BME280;69870;51.460;8.842;2023-05-07T11:14:57;98714.66;;;20.22;56.31
80542;BME280;69870;51.460;8.842;2023-05-07T11:17:32;98724.00;;;20.39;55.45
80542;BME280;69870;51.460;8.842;2023-05-07T11:20:04;98711.50;;;20.20;56.64
80542;BME280;69870;51.460;8.842;2023-05-07T11:22:37;98709.34;;;20.45;56.47
80542;BME280;69870;51.460;8.842;2023-05-07T11:25:41;98722.94;;;20.67;55.12
80542;BME280;69870;51.460;8.842;2023-05-07T11:28:17;98714.41;;;20.88;55.42
80542;BME280;69870;51.460;8.842;2023-05-07T11:30:56;98711.03;;;21.10;54.51
80542;BME280;69870;51.460;8.842;2023-05-07T11:33:25;98713.34;;;21.42;54.29
80542;BME280;69870;51.460;8.842;2023-05-07T11:35:53;98712.53;;;21.72;53.31
80542;BME280;69870;51.460;8.842;2023-05-07T11:38:23;98711.47;;;21.93;52.90
80542;BME280;69870;51.460;8.842;2023-05-07T11:40:49;98708.97;;;21.71;53.34
80542;BME280;69870;51.460;8.842;2023-05-07T11:43:18;98702.53;;;21.55;53.12
80542;BME280;69870;51.460;8.842;2023-05-07T11:45:45;98716.31;;;21.85;52.67
80542;BME280;69870;51.460;8.842;2023-05-07T11:48:12;98711.63;;;22.09;52.26
80542;BME280;69870;51.460;8.842;2023-05-07T11:50:50;98705.41;;;22.71;51.26
80542;BME280;69870;51.460;8.842;2023-05-07T11:53:17;98712.00;;;22.96;50.58
80542;BME280;69870;51.460;8.842;2023-05-07T11:55:44;98706.41;;;22.57;51.23
80542;BME280;69870;51.460;8.842;2023-05-07T11:58:12;98703.53;;;22.41;51.39
80542;BME280;69870;51.460;8.842;2023-05-07T12:00:48;98699.50;;;21.99;52.27
80542;BME280;69870;51.460;8.842;2023-05-07T12:03:14;98704.06;;;21.82;52.87
80542;BME280;69870;51.460;8.842;2023-05-07T12:05:41;98705.19;;;21.62;52.80
80542;BME280;69870;51.460;8.842;2023-05-07T12:08:08;98697.34;;;21.57;53.19
80542;BME280;69870;51.460;8.842;2023-05-07T12:10:34;98701.94;;;21.94;52.82
80542;BME280;69870;51.460;8.842;2023-05-07T12:13:01;98691.72;;;22.37;52.32
80542;BME280;69870;51.460;8.842;2023-05-07T12:15:27;98694.59;;;22.53;51.70
80542;BME280;69870;51.460;8.842;2023-05-07T12:17:55;98700.69;;;22.87;51.31
80542;BME280;69870;51.460;8.842;2023-05-07T12:20:22;98693.06;;;23.50;50.21
80542;BME280;69870;51.460;8.842;2023-05-07T12:22:49;98691.56;;;23.97;49.37
80542;BME280;69870;51.460;8.842;2023-05-07T12:25:19;98690.78;;;24.29;48.94
80542;BME280;69870;51.460;8.842;2023-05-07T12:27:51;98699.22;;;24.26;48.70
80542;BME280;69870;51.460;8.842;2023-05-07T12:30:18;98699.44;;;23.99;49.20
80542;BME280;69870;51.460;8.842;2023-05-07T12:32:45;98695.88;;;23.66;49.79
80542;BME280;69870;51.460;8.842;2023-05-07T12:35:13;98701.28;;;23.38;50.24
80542;BME280;69870;51.460;8.842;2023-05-07T12:37:40;98707.97;;;23.01;51.43
80542;BME280;69870;51.460;8.842;2023-05-07T12:40:09;98705.56;;;22.60;51.56
80542;BME280;69870;51.460;8.842;2023-05-07T12:42:37;98707.00;;;22.45;52.20
80542;BME280;69870;51.460;8.842;2023-05-07T12:45:08;98707.59;;;22.79;52.25
80542;BME280;69870;51.460;8.842;2023-05-07T12:47:35;98713.59;;;22.97;50.99
80542;BME280;69870;51.460;8.842;2023-05-07T12:50:02;98708.81;;;22.98;51.28
80542;BME280;69870;51.460;8.842;2023-05-07T12:52:30;98707.88;;;23.24;50.60
80542;BME280;69870;51.460;8.842;2023-05-07T12:55:04;98712.72;;;23.00;50.84
80542;BME280;69870;51.460;8.842;2023-05-07T12:57:37;98717.25;;;22.71;51.15
80542;BME280;69870;51.460;8.842;2023-05-07T13:00:05;98713.75;;;22.67;50.89
80542;BME280;69870;51.460;8.842;2023-05-07T13:02:32;98711.03;;;23.06;50.49
80542;BME280;69870;51.460;8.842;2023-05-07T13:04:59;98720.13;;;23.26;50.00
80542;BME280;69870;51.460;8.842;2023-05-07T13:07:26;98714.88;;;23.12;50.21
80542;BME280;69870;51.460;8.842;2023-05-07T13:09:54;98720.22;;;22.60;50.67
80542;BME280;69870;51.460;8.842;2023-05-07T13:12:20;98719.41;;;21.91;52.07